Time;durP1;ratioP1;P1;durP2;ratioP2;P2;SDS_P1;SDS_P2;PMS_P1;PMS_P2;Temp;Humidity;BMP_temperature;BMP_pressure;BME280_temperature;BME280_humidity;BME280_pressure;Samples;Min_cycle;Max_cycle;Signal;HPM_P1;HPM_P2
2022/08/07 00:01:27;;;;;;;5.07;4.20;;;12.40;99.90;;;;;;5089083;28;20123;-64
2022/08/07 00:03:52;;;;;;;6.28;5.18;;;12.30;99.90;;;;;;5085900;28;20051;-64
2022/08/07 00:06:18;;;;;;;5.80;4.07;;;12.30;99.90;;;;;;5089660;28;20036;-64
2022/08/07 00:08:43;;;;;;;6.50;4.30;;;12.30;99.90;;;;;;5070501;28;20101;-63
2022/08/07 00:11:09;;;;;;;5.85;4.55;;;12.20;99.90;;;;;;5070477;28;20137;-63
2022/08/07 00:13:39;;;;;;;4.82;4.32;;;12.20;99.90;;;;;;5071999;28;20055;-63
2022/08/07 00:16:04;;;;;;;4.70;4.20;;;12.20;99.90;;;;;;5089563;28;20039;-63
2022/08/07 00:18:31;;;;;;;4.68;4.22;;;12.20;99.90;;;;;;5072676;28;20051;-63
2022/08/07 00:21:00;;;;;;;5.45;4.40;;;12.20;99.90;;;;;;5070386;28;20040;-63
2022/08/07 00:23:25;;;;;;;5.88;4.20;;;12.10;99.90;;;;;;5071440;28;20044;-64
2022/08/07 00:25:51;;;;;;;4.97;4.28;;;12.10;99.90;;;;;;5088097;28;20507;-64
2022/08/07 00:28:17;;;;;;;4.55;4.05;;;12.10;99.90;;;;;;5089393;28;20036;-64
2022/08/07 00:30:43;;;;;;;6.65;4.80;;;12.10;99.90;;;;;;5068843;28;20055;-64
2022/08/07 00:33:09;;;;;;;7.68;4.35;;;12.10;99.90;;;;;;5066191;28;20044;-64
2022/08/07 00:35:34;;;;;;;4.60;4.20;;;12.00;99.90;;;;;;5061073;28;20400;-64
2022/08/07 00:38:00;;;;;;;5.50;4.45;;;12.00;99.90;;;;;;5068955;28;20036;-63
2022/08/07 00:40:27;;;;;;;5.45;4.50;;;12.00;99.90;;;;;;5065477;28;20040;-62
2022/08/07 00:42:53;;;;;;;5.00;4.13;;;12.00;99.90;;;;;;5065974;28;20059;-63
2022/08/07 00:45:20;;;;;;;5.28;4.10;;;12.00;99.90;;;;;;5066008;28;20045;-64
2022/08/07 00:47:46;;;;;;;4.53;4.07;;;11.90;99.90;;;;;;5063311;28;20048;-64
2022/08/07 00:50:12;;;;;;;4.90;4.22;;;11.90;99.90;;;;;;5071927;28;20067;-64
2022/08/07 00:52:38;;;;;;;5.63;4.60;;;11.80;99.90;;;;;;5060863;28;20056;-63
2022/08/07 00:55:04;;;;;;;6.53;4.88;;;11.80;99.90;;;;;;5069145;28;20487;-64
2022/08/07 00:57:31;;;;;;;7.50;5.03;;;11.80;99.90;;;;;;5063919;28;20123;-64
2022/08/07 00:59:57;;;;;;;6.35;5.43;;;11.70;99.90;;;;;;5069380;28;20046;-62
2022/08/07 01:02:24;;;;;;;6.28;4.78;;;11.70;99.90;;;;;;5066039;28;20040;-64
2022/08/07 01:04:51;;;;;;;4.90;4.40;;;11.70;99.90;;;;;;5069850;28;20052;-64
2022/08/07 01:07:20;;;;;;;5.22;4.30;;;11.60;99.90;;;;;;5060880;28;20045;-63
2022/08/07 01:09:45;;;;;;;5.00;4.40;;;11.60;99.90;;;;;;5066844;28;20035;-64
2022/08/07 01:12:15;;;;;;;5.88;4.57;;;11.50;99.90;;;;;;5063037;28;20041;-63
2022/08/07 01:14:41;;;;;;;7.75;4.50;;;11.40;99.90;;;;;;5072500;28;20048;-63
2022/08/07 01:17:08;;;;;;;7.10;4.43;;;11.40;99.90;;;;;;5063119;28;20040;-63
2022/08/07 01:19:35;;;;;;;5.45;4.55;;;11.30;99.90;;;;;;5072136;28;20033;-61
2022/08/07 01:22:01;;;;;;;5.60;4.75;;;11.30;99.90;;;;;;5067037;28;20047;-62
2022/08/07 01:24:28;;;;;;;5.07;4.10;;;11.30;99.90;;;;;;5061609;28;20180;-62
2022/08/07 01:26:54;;;;;;;5.32;4.30;;;11.20;99.90;;;;;;5047324;28;20049;-64
2022/08/07 01:29:24;;;;;;;4.80;4.15;;;11.20;99.90;;;;;;5048377;28;20498;-63
2022/08/07 01:31:51;;;;;;;7.60;4.43;;;11.10;99.90;;;;;;5068928;28;20051;-62
2022/08/07 01:34:17;;;;;;;5.45;4.50;;;11.10;99.90;;;;;;5069870;28;20127;-63
2022/08/07 01:36:45;;;;;;;5.13;4.60;;;11.10;99.90;;;;;;5068254;28;20049;-62
2022/08/07 01:39:11;;;;;;;5.03;4.53;;;11.00;99.90;;;;;;5055022;28;20040;-64
2022/08/07 01:41:38;;;;;;;5.15;4.65;;;11.00;99.90;;;;;;5068339;28;20094;-64
2022/08/07 01:44:04;;;;;;;5.35;4.22;;;11.00;99.90;;;;;;5066273;28;20471;-64
2022/08/07 01:46:30;;;;;;;7.05;4.55;;;10.90;99.90;;;;;;5069370;28;20036;-62
2022/08/07 01:48:56;;;;;;;5.75;4.70;;;10.90;99.90;;;;;;5051233;28;20403;-63
2022/08/07 01:51:23;;;;;;;6.60;4.78;;;10.90;99.90;;;;;;5067075;28;20054;-63
2022/08/07 01:53:57;;;;;;;6.40;4.72;;;10.80;99.90;;;;;;5062672;28;20103;-64
2022/08/07 01:56:26;;;;;;;4.38;3.97;;;10.90;99.90;;;;;;5068837;28;20047;-62
2022/08/07 01:58:58;;;;;;;5.78;4.18;;;10.80;99.90;;;;;;5064564;28;20045;-63
2022/08/07 02:01:26;;;;;;;7.22;4.63;;;10.80;99.90;;;;;;5057850;28;20041;-64
2022/08/07 02:04:10;;;;;;;6.90;4.60;;;10.80;99.90;;;;;;5067713;28;20040;-63
2022/08/07 02:06:38;;;;;;;5.05;4.07;;;10.80;99.90;;;;;;5065450;28;20032;-63
2022/08/07 02:09:06;;;;;;;4.82;4.18;;;10.80;99.90;;;;;;5060901;28;20044;-64
2022/08/07 02:11:39;;;;;;;5.85;4.50;;;10.80;99.90;;;;;;5060284;28;20041;-63
2022/08/07 02:14:06;;;;;;;6.85;3.97;;;10.80;99.90;;;;;;5068203;28;20072;-63
2022/08/07 02:16:34;;;;;;;5.32;4.35;;;10.80;99.90;;;;;;5058475;28;20039;-63
2022/08/07 02:19:03;;;;;;;5.65;4.35;;;10.80;99.90;;;;;;5066821;28;20056;-62
2022/08/07 02:21:29;;;;;;;5.93;4.30;;;10.80;99.90;;;;;;5062765;28;20041;-62
2022/08/07 02:23:58;;;;;;;5.13;4.30;;;10.80;99.90;;;;;;5066817;28;20136;-64
2022/08/07 02:26:24;;;;;;;5.13;4.28;;;10.80;99.90;;;;;;5062602;28;20808;-62
2022/08/07 02:28:51;;;;;;;6.03;4.57;;;10.80;99.90;;;;;;5067520;28;20079;-63
2022/08/07 02:31:19;;;;;;;6.20;4.57;;;10.80;99.90;;;;;;5097549;28;20431;-64
2022/08/07 02:33:45;;;;;;;6.57;4.20;;;10.80;99.90;;;;;;5091855;28;20383;-62
2022/08/07 02:36:12;;;;;;;5.40;4.35;;;10.80;99.90;;;;;;5072989;28;20097;-62
2022/08/07 02:38:39;;;;;;;4.72;4.25;;;10.80;99.90;;;;;;5071564;28;20048;-64
2022/08/07 02:41:06;;;;;;;4.47;3.80;;;10.80;99.90;;;;;;5071339;28;20143;-62
2022/08/07 02:43:35;;;;;;;6.30;4.18;;;10.80;99.90;;;;;;5090793;28;20048;-63
2022/08/07 02:46:04;;;;;;;4.70;4.25;;;10.80;99.90;;;;;;5071580;28;20051;-63
2022/08/07 02:48:29;;;;;;;7.10;4.38;;;10.70;99.90;;;;;;5074179;28;20043;-63
2022/08/07 02:50:58;;;;;;;5.03;4.32;;;10.70;99.90;;;;;;5072606;28;20043;-62
2022/08/07 02:53:34;;;;;;;6.30;4.90;;;10.70;99.90;;;;;;5088720;28;20085;-62
2022/08/07 02:56:03;;;;;;;4.97;4.22;;;10.60;99.90;;;;;;5084566;28;20051;-63
2022/08/07 02:58:30;;;;;;;4.90;4.40;;;10.60;99.90;;;;;;5089270;28;20115;-63
2022/08/07 03:00:58;;;;;;;5.38;4.22;;;10.60;99.90;;;;;;5090640;28;20066;-64
2022/08/07 03:03:27;;;;;;;5.25;4.43;;;10.60;99.90;;;;;;5070105;28;20124;-64
2022/08/07 03:05:55;;;;;;;5.60;4.07;;;10.60;99.90;;;;;;5090173;28;20505;-64
2022/08/07 03:08:21;;;;;;;4.85;3.88;;;10.70;99.90;;;;;;5054724;28;20402;-63
2022/08/07 03:10:47;;;;;;;4.60;4.18;;;10.60;99.90;;;;;;5089516;28;20039;-64
2022/08/07 03:13:17;;;;;;;5.45;3.92;;;10.60;99.90;;;;;;5070642;28;20043;-63
2022/08/07 03:15:44;;;;;;;6.43;4.40;;;10.60;99.90;;;;;;5072377;28;20036;-63
2022/08/07 03:18:11;;;;;;;5.03;4.32;;;10.50;99.90;;;;;;5071146;28;20090;-63
2022/08/07 03:20:38;;;;;;;4.85;4.32;;;10.50;99.90;;;;;;5072405;28;20040;-63
2022/08/07 03:23:06;;;;;;;5.10;3.80;;;10.50;99.90;;;;;;5090340;28;20107;-63
2022/08/07 03:25:34;;;;;;;4.28;3.88;;;10.50;99.90;;;;;;5089938;28;20086;-63
2022/08/07 03:28:01;;;;;;;4.80;4.28;;;10.40;99.90;;;;;;5071258;28;20037;-64
2022/08/07 03:30:29;;;;;;;5.65;4.05;;;10.40;99.90;;;;;;5090212;28;20117;-62
2022/08/07 03:32:56;;;;;;;5.78;4.38;;;10.40;99.90;;;;;;5070986;28;20465;-63
2022/08/07 03:35:24;;;;;;;4.95;4.43;;;10.30;99.90;;;;;;5089957;28;20046;-64
2022/08/07 03:37:54;;;;;;;5.43;4.32;;;10.30;99.90;;;;;;5053803;28;20109;-62
2022/08/07 03:40:21;;;;;;;5.93;4.18;;;10.30;99.90;;;;;;5090057;28;20546;-62
2022/08/07 03:42:47;;;;;;;6.07;3.88;;;10.30;99.90;;;;;;5069087;28;20052;-64
2022/08/07 03:45:14;;;;;;;4.80;4.25;;;10.30;99.90;;;;;;5088765;28;20394;-63
2022/08/07 03:47:40;;;;;;;4.72;4.07;;;10.30;99.90;;;;;;5070654;28;20666;-63
2022/08/07 03:50:05;;;;;;;5.85;4.25;;;10.30;99.90;;;;;;5070049;28;20136;-64
2022/08/07 03:52:31;;;;;;;4.32;3.70;;;10.20;99.90;;;;;;5070455;28;20752;-64
2022/08/07 03:54:58;;;;;;;5.03;4.05;;;10.20;99.90;;;;;;5069670;28;20062;-64
2022/08/07 03:57:29;;;;;;;6.97;4.95;;;10.20;99.90;;;;;;5071208;28;20506;-63
2022/08/07 03:59:55;;;;;;;4.68;3.72;;;10.20;99.90;;;;;;5086201;28;20036;-63
2022/08/07 04:02:21;;;;;;;6.75;3.95;;;10.10;99.90;;;;;;5070844;28;20025;-63
2022/08/07 04:04:48;;;;;;;5.78;4.40;;;10.10;99.90;;;;;;5089443;28;20044;-63
2022/08/07 04:07:20;;;;;;;6.95;4.32;;;10.20;99.90;;;;;;5088677;28;20039;-61
2022/08/07 04:09:47;;;;;;;5.65;4.03;;;10.20;99.90;;;;;;5088696;28;20051;-64
2022/08/07 04:12:13;;;;;;;9.10;4.25;;;10.20;99.90;;;;;;5089599;28;20044;-64
2022/08/07 04:14:40;;;;;;;5.65;3.95;;;10.20;99.90;;;;;;5070190;28;20392;-64
2022/08/07 04:17:07;;;;;;;9.45;5.00;;;10.20;99.90;;;;;;5088835;28;20040;-64
2022/08/07 04:19:33;;;;;;;5.85;4.85;;;10.20;99.90;;;;;;5071409;28;20491;-63
2022/08/07 04:21:58;;;;;;;6.28;4.97;;;10.20;99.90;;;;;;5071271;28;20044;-62
2022/08/07 04:24:26;;;;;;;8.88;6.28;;;10.20;99.90;;;;;;5087644;28;20066;-63
2022/08/07 04:26:51;;;;;;;6.90;6.05;;;10.20;99.90;;;;;;5070210;28;20067;-63
2022/08/07 04:29:17;;;;;;;5.93;4.72;;;10.20;99.90;;;;;;5070499;28;20106;-62
2022/08/07 04:31:43;;;;;;;4.70;4.18;;;10.10;99.90;;;;;;5071082;28;20046;-63
2022/08/07 04:34:09;;;;;;;5.13;4.43;;;10.20;99.90;;;;;;5071237;28;20097;-63
2022/08/07 04:36:36;;;;;;;5.57;3.83;;;10.20;99.90;;;;;;5069896;28;20036;-63
2022/08/07 04:39:03;;;;;;;5.03;4.45;;;10.20;99.90;;;;;;5055823;28;20166;-62
2022/08/07 04:41:29;;;;;;;6.93;4.38;;;10.20;99.90;;;;;;5069648;28;20051;-64
2022/08/07 04:43:55;;;;;;;6.10;4.80;;;10.30;99.90;;;;;;5089487;28;20036;-64
2022/08/07 04:46:39;;;;;;;5.30;3.88;;;10.30;99.90;;;;;;5070072;28;20046;-63
2022/08/07 04:49:10;;;;;;;5.43;4.65;;;10.40;99.90;;;;;;5089297;28;20114;-63
2022/08/07 04:51:58;;;;;;;4.68;3.88;;;10.40;99.90;;;;;;5069456;28;20047;-64
2022/08/07 04:54:53;;;;;;;5.28;4.25;;;10.50;99.90;;;;;;5068185;28;20173;-62
2022/08/07 04:57:26;;;;;;;5.57;3.58;;;10.60;99.90;;;;;;5042093;28;20043;-64
2022/08/07 05:00:00;;;;;;;4.07;3.67;;;10.70;99.90;;;;;;5070325;28;20040;-64
2022/08/07 05:02:31;;;;;;;3.83;3.38;;;10.70;99.90;;;;;;5071211;28;20047;-63
2022/08/07 05:05:21;;;;;;;4.28;3.70;;;10.80;99.90;;;;;;5089062;28;20072;-64
2022/08/07 05:08:02;;;;;;;4.43;3.78;;;10.80;99.90;;;;;;5071180;28;20109;-64
2022/08/07 05:10:30;;;;;;;5.05;3.53;;;10.90;99.90;;;;;;5070496;28;20055;-63
2022/08/07 05:13:25;;;;;;;4.00;3.45;;;11.00;99.90;;;;;;5070466;28;20071;-63
2022/08/07 05:15:52;;;;;;;6.05;4.68;;;11.10;99.90;;;;;;5070184;28;20482;-63
2022/08/07 05:18:34;;;;;;;6.10;4.88;;;11.10;99.90;;;;;;5070235;28;20039;-62
2022/08/07 05:21:02;;;;;;;4.88;4.30;;;11.20;99.90;;;;;;5089022;28;20070;-65
2022/08/07 05:23:42;;;;;;;7.25;4.07;;;11.40;99.90;;;;;;5068823;28;20092;-65
2022/08/07 05:26:16;;;;;;;5.97;3.60;;;11.50;99.90;;;;;;5088331;28;20436;-62
2022/08/07 05:28:43;;;;;;;4.03;3.63;;;11.60;99.90;;;;;;5070457;28;20043;-63
2022/08/07 05:31:12;;;;;;;5.32;3.75;;;11.70;99.90;;;;;;5070850;28;20067;-63
2022/08/07 05:33:38;;;;;;;4.82;3.80;;;11.90;99.90;;;;;;5070386;28;20104;-64
2022/08/07 05:36:06;;;;;;;5.07;3.80;;;12.00;99.90;;;;;;5091390;28;20169;-64
2022/08/07 05:38:33;;;;;;;5.00;4.07;;;12.10;99.90;;;;;;5077273;28;20028;-64
2022/08/07 05:41:01;;;;;;;4.65;4.15;;;12.30;99.90;;;;;;5074158;28;20051;-62
2022/08/07 05:43:27;;;;;;;6.10;4.50;;;12.40;99.90;;;;;;5089593;28;20044;-64
2022/08/07 05:45:53;;;;;;;5.97;4.60;;;12.60;99.90;;;;;;5073827;28;20055;-62
2022/08/07 05:48:20;;;;;;;6.18;4.70;;;12.70;99.90;;;;;;5072749;28;20134;-64
2022/08/07 05:50:46;;;;;;;6.28;5.03;;;12.90;99.90;;;;;;5072097;28;20036;-65
2022/08/07 05:53:12;;;;;;;6.57;5.00;;;13.00;99.90;;;;;;5072004;28;20383;-64
2022/08/07 05:55:38;;;;;;;5.40;4.07;;;13.20;99.90;;;;;;5071916;28;20040;-64
2022/08/07 05:58:05;;;;;;;4.78;4.22;;;13.40;99.90;;;;;;5072450;28;20043;-64
2022/08/07 06:00:32;;;;;;;5.10;4.13;;;13.50;99.90;;;;;;5071843;28;20519;-63
2022/08/07 06:03:00;;;;;;;6.28;4.53;;;13.70;99.90;;;;;;5074257;28;20040;-65
2022/08/07 06:05:27;;;;;;;4.90;4.05;;;13.90;99.90;;;;;;5074119;28;20123;-64
2022/08/07 06:07:55;;;;;;;5.82;4.43;;;14.00;99.90;;;;;;5074451;28;20040;-64
2022/08/07 06:10:20;;;;;;;6.82;4.65;;;14.20;99.90;;;;;;5073324;28;20048;-63
2022/08/07 06:12:47;;;;;;;8.18;4.78;;;14.30;99.90;;;;;;5073781;28;20448;-63
2022/08/07 06:15:14;;;;;;;9.13;6.15;;;14.50;99.90;;;;;;5072694;28;20086;-62
2022/08/07 06:17:42;;;;;;;10.07;7.63;;;14.70;99.90;;;;;;5071946;28;20481;-64
2022/08/07 06:20:09;;;;;;;11.18;8.40;;;14.90;99.90;;;;;;5071548;28;20050;-64
2022/08/07 06:22:36;;;;;;;10.27;8.70;;;15.20;99.90;;;;;;5086748;28;20486;-65
2022/08/07 06:25:03;;;;;;;11.77;8.65;;;15.40;99.90;;;;;;5098321;28;20039;-62
2022/08/07 06:27:29;;;;;;;13.88;9.57;;;15.60;99.90;;;;;;5111076;28;20044;-62
2022/08/07 06:29:54;;;;;;;13.15;9.30;;;15.80;99.90;;;;;;5097507;28;20051;-64
2022/08/07 06:32:21;;;;;;;10.75;8.40;;;15.90;99.90;;;;;;5088277;28;20142;-64
2022/08/07 06:34:47;;;;;;;11.93;9.35;;;16.10;99.90;;;;;;5071328;28;20566;-64
2022/08/07 06:37:12;;;;;;;13.27;9.57;;;16.30;99.90;;;;;;5097142;28;20063;-63
2022/08/07 06:39:38;;;;;;;11.93;8.82;;;16.40;99.90;;;;;;5097575;28;20105;-64
2022/08/07 06:42:26;;;;;;;10.77;8.18;;;16.50;99.90;;;;;;5100549;28;20035;-65
2022/08/07 06:44:53;;;;;;;11.43;8.15;;;16.60;99.90;;;;;;5069436;28;20052;-65
2022/08/07 06:47:19;;;;;;;9.50;7.40;;;16.80;99.90;;;;;;5089055;28;20046;-65
2022/08/07 06:49:45;;;;;;;10.98;7.35;;;16.90;99.90;;;;;;5096395;28;20122;-63
2022/08/07 06:52:12;;;;;;;8.68;7.78;;;17.10;99.90;;;;;;5070844;28;20055;-64
2022/08/07 06:54:39;;;;;;;10.02;6.95;;;17.20;99.90;;;;;;5077141;28;20055;-63
2022/08/07 06:57:06;;;;;;;8.45;6.95;;;17.30;99.90;;;;;;5076028;28;20039;-64
2022/08/07 06:59:36;;;;;;;10.18;6.85;;;17.50;99.90;;;;;;5074664;28;20040;-67
2022/08/07 07:02:04;;;;;;;8.77;6.40;;;17.70;99.90;;;;;;5071025;28;20040;-65
2022/08/07 07:04:30;;;;;;;8.15;5.95;;;17.80;99.90;;;;;;5091158;28;20090;-63
2022/08/07 07:06:57;;;;;;;8.55;6.15;;;18.00;99.90;;;;;;5091558;28;20082;-63
2022/08/07 07:09:25;;;;;;;9.38;6.30;;;18.10;99.90;;;;;;5065374;28;20055;-63
2022/08/07 07:12:12;;;;;;;7.05;5.45;;;18.30;99.90;;;;;;5069989;28;20054;-63
2022/08/07 07:14:48;;;;;;;6.30;4.70;;;18.30;99.90;;;;;;5071026;28;20043;-63
2022/08/07 07:17:26;;;;;;;5.22;4.20;;;18.40;99.90;;;;;;5066219;28;20037;-63
2022/08/07 07:19:58;;;;;;;4.68;4.00;;;18.60;99.90;;;;;;5086827;28;20039;-63
2022/08/07 07:22:25;;;;;;;5.60;4.00;;;18.70;99.90;;;;;;5070486;28;20509;-63
2022/08/07 07:24:51;;;;;;;5.78;3.35;;;18.80;99.90;;;;;;5065863;28;20043;-63
2022/08/07 07:27:22;;;;;;;4.13;3.15;;;19.00;99.90;;;;;;5088889;28;20355;-62
2022/08/07 07:29:53;;;;;;;3.75;2.80;;;19.00;99.90;;;;;;5083643;28;20056;-65
2022/08/07 07:32:22;;;;;;;3.13;2.67;;;19.10;99.90;;;;;;5056412;28;20048;-63
2022/08/07 07:34:54;;;;;;;2.15;1.90;;;19.10;99.90;;;;;;5054363;28;20044;-63
2022/08/07 07:37:21;;;;;;;;;;;19.10;99.90;;;;;;5076155;28;20031;-65
2022/08/07 07:39:50;;;;;;;3.55;2.20;;;19.20;99.90;;;;;;5058229;28;20369;-65
2022/08/07 07:42:17;;;;;;;5.53;2.67;;;19.30;99.90;;;;;;5071981;28;20475;-62
2022/08/07 07:44:45;;;;;;;2.70;2.50;;;19.30;99.90;;;;;;5070040;28;20043;-63
2022/08/07 07:47:14;;;;;;;7.13;3.28;;;19.50;99.90;;;;;;5071608;28;20051;-65
2022/08/07 07:49:41;;;;;;;3.05;2.38;;;19.50;99.90;;;;;;5089897;28;20119;-64
2022/08/07 07:52:09;;;;;;;3.72;2.50;;;19.70;99.90;;;;;;5071536;28;20058;-65
2022/08/07 07:54:35;;;;;;;3.78;2.20;;;19.80;99.90;;;;;;5054698;28;20056;-63
2022/08/07 07:57:03;;;;;;;3.78;1.75;;;19.90;99.90;;;;;;5086514;28;20432;-64
2022/08/07 07:59:29;;;;;;;3.35;2.33;;;19.90;99.90;;;;;;5048168;28;20110;-65
2022/08/07 08:01:56;;;;;;;3.40;2.88;;;19.80;99.90;;;;;;5050163;28;20119;-65
2022/08/07 08:04:24;;;;;;;3.10;2.80;;;19.90;99.90;;;;;;5068471;28;20055;-65
2022/08/07 08:06:51;;;;;;;3.63;2.88;;;20.00;99.90;;;;;;5070961;28;20039;-63
2022/08/07 08:09:19;;;;;;;3.30;2.78;;;20.00;99.90;;;;;;5070565;28;20101;-64
2022/08/07 08:11:45;;;;;;;4.45;2.97;;;20.00;99.90;;;;;;5088568;28;20043;-63
2022/08/07 08:14:11;;;;;;;4.28;3.15;;;20.30;99.90;;;;;;5089546;28;20044;-65
2022/08/07 08:16:42;;;;;;;4.03;3.15;;;20.30;99.90;;;;;;5069068;28;20130;-62
2022/08/07 08:19:15;;;;;;;2.95;2.45;;;20.40;99.90;;;;;;5071326;28;20036;-63
2022/08/07 08:27:23;;;;;;;2.92;2.30;;;20.60;99.90;;;;;;5070008;28;20044;-64
2022/08/07 08:29:53;;;;;;;3.47;2.28;;;20.80;99.70;;;;;;5087618;28;20044;-65
2022/08/07 08:32:22;;;;;;;2.83;2.08;;;20.90;99.50;;;;;;5059402;28;20035;-63
2022/08/07 08:34:49;;;;;;;3.20;1.83;;;21.10;99.90;;;;;;5084047;28;20068;-66
2022/08/07 08:37:17;;;;;;;1.65;1.55;;;21.10;99.30;;;;;;5061647;28;20043;-65
2022/08/07 08:39:44;;;;;;;2.70;1.40;;;21.10;97.90;;;;;;5082276;28;20067;-65
2022/08/07 08:42:32;;;;;;;1.95;1.52;;;21.20;98.00;;;;;;5081077;28;20116;-66
2022/08/07 08:45:06;;;;;;;2.17;1.35;;;21.10;97.60;;;;;;5053862;28;20056;-65
2022/08/07 08:48:09;;;;;;;3.05;1.25;;;21.20;98.50;;;;;;5085066;28;20052;-66
2022/08/07 08:50:53;;;;;;;3.28;1.20;;;21.40;97.80;;;;;;5064558;28;20083;-64
2022/08/07 08:53:29;;;;;;;2.45;1.48;;;21.50;98.10;;;;;;5080374;28;20071;-64
2022/08/07 08:56:22;;;;;;;3.42;1.55;;;21.60;97.40;;;;;;5076167;28;20044;-65
2022/08/07 08:58:59;;;;;;;4.50;1.60;;;21.70;96.50;;;;;;5080264;28;20150;-65
2022/08/07 09:01:49;;;;;;;2.78;1.58;;;21.90;97.70;;;;;;5063799;28;20047;-63
2022/08/07 09:04:25;;;;;;;1.98;1.20;;;22.10;96.60;;;;;;5064236;28;20052;-65
2022/08/07 09:06:54;;;;;;;1.80;1.30;;;21.90;95.00;;;;;;5063585;28;20166;-62
2022/08/07 09:09:58;;;;;;;2.17;1.75;;;21.90;96.10;;;;;;5068587;28;20039;-64
2022/08/07 09:12:46;;;;;;;2.92;1.60;;;22.00;96.00;;;;;;5073870;28;20059;-64
2022/08/07 09:15:20;;;;;;;2.20;1.83;;;22.00;95.60;;;;;;5072043;28;20094;-64
2022/08/07 09:18:18;;;;;;;2.90;2.00;;;22.30;97.10;;;;;;5069768;28;20035;-65
2022/08/07 09:20:46;;;;;;;2.72;1.90;;;22.20;95.30;;;;;;5091047;28;20036;-65
2022/08/07 09:23:16;;;;;;;3.38;1.92;;;22.30;96.50;;;;;;5086381;28;20036;-64
2022/08/07 09:25:50;;;;;;;2.75;1.60;;;22.60;96.50;;;;;;5093578;28;20032;-63
2022/08/07 09:28:30;;;;;;;2.67;1.42;;;22.80;96.10;;;;;;5088495;28;20036;-65
2022/08/07 09:31:07;;;;;;;4.40;1.90;;;22.90;96.30;;;;;;5074131;28;20539;-63
2022/08/07 09:33:47;;;;;;;3.38;1.95;;;22.40;95.10;;;;;;5071679;28;20036;-65
2022/08/07 09:36:17;;;;;;;3.10;1.70;;;22.40;95.60;;;;;;5092590;28;20036;-62
2022/08/07 09:39:07;;;;;;;2.88;2.05;;;22.70;96.20;;;;;;5091273;28;20111;-64
2022/08/07 09:41:54;;;;;;;3.38;1.73;;;22.80;95.00;;;;;;5074080;28;20052;-64
2022/08/07 09:44:34;;;;;;;2.65;2.03;;;22.50;94.60;;;;;;5070499;28;20101;-62
2022/08/07 09:47:27;;;;;;;3.15;2.20;;;22.70;95.30;;;;;;5070309;28;20060;-65
2022/08/07 09:50:12;;;;;;;2.85;1.90;;;22.90;95.80;;;;;;5082985;28;20098;-64
2022/08/07 09:52:48;;;;;;;2.20;1.95;;;23.10;94.40;;;;;;5073591;28;20449;-65
2022/08/07 09:55:20;;;;;;;2.50;1.95;;;23.00;93.80;;;;;;5091348;28;20414;-65
2022/08/07 09:58:10;;;;;;;2.08;1.85;;;23.00;93.90;;;;;;5075389;28;20379;-66
2022/08/07 10:01:00;;;;;;;2.28;1.73;;;23.10;94.00;;;;;;5093127;28;20117;-65
2022/08/07 10:04:04;;;;;;;3.15;2.00;;;23.20;93.90;;;;;;5055683;28;20393;-66
2022/08/07 10:07:12;;;;;;;2.95;2.00;;;23.40;94.80;;;;;;5093148;28;20043;-65
2022/08/07 10:10:22;;;;;;;3.63;1.50;;;23.70;93.70;;;;;;5036979;28;20501;-63
2022/08/07 10:13:20;;;;;;;3.20;1.65;;;23.70;93.00;;;;;;4975264;28;20049;-64
2022/08/07 10:16:28;;;;;;;3.35;2.63;;;23.90;93.40;;;;;;4974748;28;20061;-65
2022/08/07 10:18:56;;;;;;;2.40;1.70;;;23.80;91.70;;;;;;4917345;29;20052;-63
2022/08/07 10:21:36;;;;;;;3.58;1.73;;;23.50;91.60;;;;;;4932946;29;20059;-65
2022/08/07 10:24:28;;;;;;;2.38;1.60;;;23.80;92.60;;;;;;4917286;29;20047;-65
2022/08/07 10:27:26;;;;;;;1.70;1.50;;;24.00;92.20;;;;;;4933298;29;20578;-65
2022/08/07 10:30:08;;;;;;;2.25;1.50;;;24.20;91.90;;;;;;4860783;29;20638;-63
2022/08/07 10:32:55;;;;;;;4.10;1.80;;;24.60;91.90;;;;;;4876298;29;20479;-64
2022/08/07 10:35:28;;;;;;;1.50;1.20;;;24.60;90.90;;;;;;4860719;29;20056;-63
2022/08/07 10:38:31;;;;;;;1.77;1.55;;;24.70;90.30;;;;;;4876442;29;20044;-63
2022/08/07 10:41:17;;;;;;;1.73;1.27;;;24.60;90.70;;;;;;4876331;29;20049;-64
2022/08/07 10:44:07;;;;;;;2.47;1.27;;;24.50;90.90;;;;;;4860801;29;20053;-66
2022/08/07 10:46:47;;;;;;;1.65;1.10;;;24.20;89.00;;;;;;4909783;29;20131;-65
2022/08/07 10:49:31;;;;;;;2.22;1.30;;;24.20;90.30;;;;;;4935752;29;20138;-63
2022/08/07 10:52:09;;;;;;;1.75;1.10;;;24.40;89.00;;;;;;4951770;28;20130;-64
2022/08/07 10:54:52;;;;;;;1.65;1.20;;;24.50;88.70;;;;;;4938346;28;20086;-64
2022/08/07 10:57:30;;;;;;;2.75;1.30;;;24.70;89.40;;;;;;5009944;28;20513;-64
2022/08/07 11:00:11;;;;;;;1.35;1.20;;;24.60;87.30;;;;;;4993382;28;20394;-63
2022/08/07 11:02:49;;;;;;;1.75;1.13;;;24.50;87.10;;;;;;4993632;28;20030;-64
2022/08/07 11:05:24;;;;;;;1.55;1.20;;;24.60;88.00;;;;;;5015780;28;20034;-64
2022/08/07 11:07:57;;;;;;;2.38;1.30;;;24.90;87.10;;;;;;5090608;28;20108;-63
2022/08/07 11:10:26;;;;;;;1.40;1.30;;;24.90;87.30;;;;;;5056672;28;20063;-65
2022/08/07 11:13:01;;;;;;;1.98;1.00;;;24.70;85.10;;;;;;5073528;28;20139;-65
2022/08/07 11:15:32;;;;;;;2.33;1.20;;;24.80;83.90;;;;;;5073557;28;20478;-63
2022/08/07 11:18:01;;;;;;;;;;;24.60;83.70;;;;;;5092030;28;20084;-65
2022/08/07 11:20:41;;;;;;;2.83;1.10;;;24.60;85.20;;;;;;5091626;28;19916;-65
2022/08/07 11:23:19;;;;;;;1.85;1.15;;;24.80;83.60;;;;;;5073523;28;20032;-64
2022/08/07 11:26:09;;;;;;;2.17;1.52;;;25.00;83.90;;;;;;5091421;28;20111;-65
2022/08/07 11:28:45;;;;;;;1.90;1.20;;;24.80;83.00;;;;;;5091893;28;20115;-65
2022/08/07 11:31:33;;;;;;;2.45;1.42;;;24.70;83.00;;;;;;5072704;28;20044;-64
2022/08/07 11:34:34;;;;;;;1.55;1.35;;;24.70;83.90;;;;;;5073069;28;20052;-64
2022/08/07 11:37:26;;;;;;;2.15;1.60;;;24.80;85.10;;;;;;4973100;28;20076;-64
2022/08/07 11:40:16;;;;;;;2.15;1.45;;;24.60;81.80;;;;;;4967199;28;20390;-64
2022/08/07 11:43:12;;;;;;;3.38;1.40;;;24.60;81.50;;;;;;4973505;28;20580;-63
2022/08/07 11:46:11;;;;;;;2.65;1.30;;;24.50;83.10;;;;;;4989551;28;20170;-63
2022/08/07 11:48:55;;;;;;;2.28;1.55;;;24.60;81.30;;;;;;4973425;28;20548;-65
2022/08/07 11:51:24;;;;;;;2.50;1.60;;;24.50;82.50;;;;;;4973513;28;20053;-65
2022/08/07 11:54:09;;;;;;;2.35;1.60;;;24.60;83.60;;;;;;4972890;28;20057;-65
2022/08/07 11:56:50;;;;;;;2.08;1.50;;;24.60;82.80;;;;;;4973334;28;20045;-63
2022/08/07 11:59:34;;;;;;;1.40;1.30;;;24.50;81.90;;;;;;4973080;28;20066;-64
2022/08/07 12:02:45;;;;;;;1.52;1.20;;;24.70;84.10;;;;;;4972857;28;20034;-63
2022/08/07 12:05:48;;;;;;;1.50;1.40;;;24.70;84.00;;;;;;4972970;28;20050;-63
2022/08/07 12:08:23;;;;;;;3.47;1.73;;;24.60;83.70;;;;;;4989152;28;20062;-64
2022/08/07 12:10:49;;;;;;;2.35;1.60;;;24.50;82.60;;;;;;4972975;28;20050;-64
2022/08/07 12:13:29;;;;;;;2.63;1.70;;;24.50;84.30;;;;;;5020845;28;20036;-64
2022/08/07 12:16:08;;;;;;;2.00;1.45;;;24.60;83.30;;;;;;5090550;28;20052;-64
2022/08/07 12:18:40;;;;;;;2.40;1.58;;;24.20;82.30;;;;;;5056127;28;20124;-65
2022/08/07 12:21:24;;;;;;;;;;;24.10;82.00;;;;;;5073023;28;20044;-65
2022/08/07 12:23:53;;;;;;;3.25;1.13;;;24.00;82.60;;;;;;5072629;28;20072;-63
2022/08/07 12:26:38;;;;;;;1.35;1.10;;;23.90;82.50;;;;;;5072206;28;20074;-64
2022/08/07 12:29:29;;;;;;;2.25;1.30;;;24.00;83.90;;;;;;5072536;28;20083;-64
2022/08/07 12:32:03;;;;;;;1.70;1.40;;;23.90;82.70;;;;;;5072732;28;20567;-62
2022/08/07 12:34:34;;;;;;;2.28;1.23;;;24.00;84.00;;;;;;5072714;28;20048;-64
2022/08/07 12:37:01;;;;;;;1.90;1.50;;;23.90;83.20;;;;;;5072430;28;20083;-63
2022/08/07 12:39:30;;;;;;;1.50;1.40;;;23.90;83.00;;;;;;5090666;28;20040;-65
2022/08/07 12:41:58;;;;;;;1.50;1.40;;;23.70;82.90;;;;;;5072776;28;20502;-63
2022/08/07 12:44:25;;;;;;;1.50;1.40;;;23.70;84.00;;;;;;5094559;28;20097;-64
2022/08/07 12:47:12;;;;;;;2.33;1.55;;;23.70;84.10;;;;;;5094579;28;20040;-64
2022/08/07 12:49:59;;;;;;;2.45;1.85;;;23.70;85.60;;;;;;5076701;28;20043;-63
2022/08/07 12:52:45;;;;;;;1.85;1.75;;;23.40;86.30;;;;;;5076302;28;20380;-64
2022/08/07 12:55:28;;;;;;;3.17;2.00;;;23.40;87.20;;;;;;5076125;28;20040;-65
2022/08/07 12:57:58;;;;;;;1.80;1.52;;;23.30;87.10;;;;;;5076493;28;20502;-63
2022/08/07 13:00:40;;;;;;;1.88;1.60;;;23.30;87.20;;;;;;5076408;28;20083;-64
2022/08/07 13:03:11;;;;;;;;;;;23.40;87.60;;;;;;5076144;28;20556;-63
2022/08/07 13:06:19;;;;;;;3.83;1.90;;;23.20;89.60;;;;;;5094637;28;19980;-63
2022/08/07 13:08:57;;;;;;;2.78;2.00;;;23.00;88.20;;;;;;5076081;28;20078;-65
2022/08/07 13:12:01;;;;;;;1.63;1.52;;;23.00;90.00;;;;;;5094254;28;20038;-63
2022/08/07 13:14:36;;;;;;;2.53;1.70;;;22.90;89.30;;;;;;5075821;28;20071;-65
2022/08/07 13:17:50;;;;;;;2.03;1.77;;;22.70;89.20;;;;;;5094123;28;20047;-63
2022/08/07 13:20:29;;;;;;;1.92;1.52;;;22.50;90.00;;;;;;4975769;28;20038;-64
2022/08/07 13:23:09;;;;;;;2.05;1.85;;;22.40;89.20;;;;;;4975931;28;20038;-63
2022/08/07 13:25:43;;;;;;;3.00;1.90;;;22.30;89.70;;;;;;4992250;28;20061;-64